sensor_id;sensor_type;location;lat;lon;timestamp;pressure;altitude;pressure_sealevel;temperature;humidity
70053;BME280;57398;52.032;4.376;2023-02-15T00:00:01;103208.66;;;0.28;nan
70053;BME280;57398;52.032;4.376;2023-02-15T00:02:50;103200.00;;;0.16;nan
70053;BME280;57398;52.032;4.376;2023-02-15T00:05:39;103189.78;;;0.16;nan
70053;BME280;57398;52.032;4.376;2023-02-15T00:08:27;103186.47;;;0.14;nan
70053;BME280;57398;52.032;4.376;2023-02-15T00:11:17;103179.91;;;0.10;nan
70053;BME280;57398;52.032;4.376;2023-02-15T00:14:26;103185.38;;;0.04;nan
70053;BME280;57398;52.032;4.376;2023-02-15T00:17:14;103179.91;;;-0.04;nan
70053;BME280;57398;52.032;4.376;2023-02-15T00:20:02;103174.06;;;-0.06;nan
70053;BME280;57398;52.032;4.376;2023-02-15T00:22:52;103165.00;;;-0.12;nan
70053;BME280;57398;52.032;4.376;2023-02-15T00:25:40;103172.78;;;-0.13;nan
70053;BME280;57398;52.032;4.376;2023-02-15T00:28:29;103172.94;;;-0.16;nan
70053;BME280;57398;52.032;4.376;2023-02-15T00:31:18;103169.91;;;-0.23;nan
70053;BME280;57398;52.032;4.376;2023-02-15T00:34:09;103166.75;;;-0.27;nan
70053;BME280;57398;52.032;4.376;2023-02-15T00:36:58;103168.75;;;-0.32;nan
70053;BME280;57398;52.032;4.376;2023-02-15T00:39:48;103160.34;;;-0.34;nan
70053;BME280;57398;52.032;4.376;2023-02-15T00:42:36;103160.50;;;-0.37;nan
70053;BME280;57398;52.032;4.376;2023-02-15T00:45:24;103167.28;;;-0.36;nan
70053;BME280;57398;52.032;4.376;2023-02-15T00:48:12;103157.41;;;-0.42;nan
70053;BME280;57398;52.032;4.376;2023-02-15T00:51:00;103150.09;;;-0.48;nan
70053;BME280;57398;52.032;4.376;2023-02-15T00:53:49;103153.75;;;-0.52;nan
70053;BME280;57398;52.032;4.376;2023-02-15T00:56:38;103154.66;;;-0.53;nan
70053;BME280;57398;52.032;4.376;2023-02-15T00:59:26;103146.09;;;-0.52;nan
70053;BME280;57398;52.032;4.376;2023-02-15T01:02:14;103146.09;;;-0.52;nan
70053;BME280;57398;52.032;4.376;2023-02-15T01:05:03;103144.97;;;-0.48;nan
70053;BME280;57398;52.032;4.376;2023-02-15T01:07:52;103148.81;;;-0.55;nan
70053;BME280;57398;52.032;4.376;2023-02-15T01:10:40;103155.00;;;-0.59;nan
70053;BME280;57398;52.032;4.376;2023-02-15T01:13:32;103150.81;;;-0.60;nan
70053;BME280;57398;52.032;4.376;2023-02-15T01:16:21;103145.06;;;-0.64;nan
70053;BME280;57398;52.032;4.376;2023-02-15T01:19:09;103147.63;;;-0.64;nan
70053;BME280;57398;52.032;4.376;2023-02-15T01:21:57;103148.03;;;-0.72;nan
70053;BME280;57398;52.032;4.376;2023-02-15T01:24:48;103145.00;;;-0.78;nan
70053;BME280;57398;52.032;4.376;2023-02-15T01:27:37;103151.78;;;-0.77;nan
70053;BME280;57398;52.032;4.376;2023-02-15T01:30:26;103146.00;;;-0.81;nan
70053;BME280;57398;52.032;4.376;2023-02-15T01:33:14;103140.97;;;-0.82;nan
70053;BME280;57398;52.032;4.376;2023-02-15T01:36:05;103136.06;;;-0.86;nan
70053;BME280;57398;52.032;4.376;2023-02-15T01:38:53;103130.06;;;-0.85;nan
70053;BME280;57398;52.032;4.376;2023-02-15T01:41:41;103129.31;;;-0.87;nan
70053;BME280;57398;52.032;4.376;2023-02-15T01:44:49;103126.03;;;-0.89;nan
70053;BME280;57398;52.032;4.376;2023-02-15T01:47:42;103116.91;;;-0.93;nan
70053;BME280;57398;52.032;4.376;2023-02-15T01:50:33;103121.34;;;-0.96;nan
70053;BME280;57398;52.032;4.376;2023-02-15T01:53:25;103113.22;;;-1.03;nan
70053;BME280;57398;52.032;4.376;2023-02-15T01:56:18;103120.97;;;-1.04;nan
70053;BME280;57398;52.032;4.376;2023-02-15T01:59:09;103122.44;;;-1.00;nan
70053;BME280;57398;52.032;4.376;2023-02-15T02:02:00;103112.31;;;-1.02;nan
70053;BME280;57398;52.032;4.376;2023-02-15T02:04:52;103123.50;;;-1.04;nan
70053;BME280;57398;52.032;4.376;2023-02-15T02:07:44;103116.69;;;-1.04;nan
70053;BME280;57398;52.032;4.376;2023-02-15T02:10:33;103110.72;;;-0.89;nan
70053;BME280;57398;52.032;4.376;2023-02-15T02:13:21;103101.53;;;-0.77;nan
70053;BME280;57398;52.032;4.376;2023-02-15T02:16:13;103100.00;;;-0.79;nan
70053;BME280;57398;52.032;4.376;2023-02-15T02:19:23;103106.50;;;-0.90;nan
70053;BME280;57398;52.032;4.376;2023-02-15T02:22:40;103106.88;;;-0.96;nan
70053;BME280;57398;52.032;4.376;2023-02-15T02:32:55;103077.84;;;-1.09;nan
70053;BME280;57398;52.032;4.376;2023-02-15T02:35:52;103076.19;;;-1.10;nan
70053;BME280;57398;52.032;4.376;2023-02-15T02:38:53;103063.88;;;-1.18;nan
70053;BME280;57398;52.032;4.376;2023-02-15T02:41:49;103068.25;;;-1.20;nan
70053;BME280;57398;52.032;4.376;2023-02-15T02:44:42;103073.44;;;-1.21;nan
70053;BME280;57398;52.032;4.376;2023-02-15T02:47:34;103067.44;;;-1.20;nan
70053;BME280;57398;52.032;4.376;2023-02-15T02:50:27;103069.16;;;-1.21;nan
70053;BME280;57398;52.032;4.376;2023-02-15T02:53:15;103060.03;;;-1.25;nan
70053;BME280;57398;52.032;4.376;2023-02-15T02:56:18;103065.69;;;-1.20;nan
70053;BME280;57398;52.032;4.376;2023-02-15T02:59:11;103055.84;;;-1.26;nan
70053;BME280;57398;52.032;4.376;2023-02-15T03:02:07;103058.56;;;-1.29;nan
70053;BME280;57398;52.032;4.376;2023-02-15T03:05:03;103044.44;;;-1.35;nan
70053;BME280;57398;52.032;4.376;2023-02-15T03:07:55;103045.50;;;-1.39;nan
70053;BME280;57398;52.032;4.376;2023-02-15T03:10:44;103048.88;;;-1.38;nan
70053;BME280;57398;52.032;4.376;2023-02-15T03:13:32;103036.13;;;-1.38;nan
70053;BME280;57398;52.032;4.376;2023-02-15T03:16:22;103039.34;;;-1.35;nan
70053;BME280;57398;52.032;4.376;2023-02-15T03:19:15;103036.13;;;-1.38;nan
70053;BME280;57398;52.032;4.376;2023-02-15T03:22:08;103038.03;;;-1.42;nan
70053;BME280;57398;52.032;4.376;2023-02-15T03:25:06;103037.88;;;-1.39;nan
70053;BME280;57398;52.032;4.376;2023-02-15T03:28:01;103033.88;;;-1.29;nan
70053;BME280;57398;52.032;4.376;2023-02-15T03:30:53;103039.66;;;-1.25;nan
70053;BME280;57398;52.032;4.376;2023-02-15T03:33:48;103044.00;;;-1.27;nan
70053;BME280;57398;52.032;4.376;2023-02-15T03:36:43;103033.72;;;-1.25;nan
70053;BME280;57398;52.032;4.376;2023-02-15T03:39:35;103034.72;;;-1.28;nan
70053;BME280;57398;52.032;4.376;2023-02-15T03:42:28;103028.22;;;-1.34;nan
70053;BME280;57398;52.032;4.376;2023-02-15T03:45:22;103020.66;;;-1.35;nan
70053;BME280;57398;52.032;4.376;2023-02-15T03:48:12;103023.72;;;-1.44;nan
70053;BME280;57398;52.032;4.376;2023-02-15T03:51:04;103018.78;;;-1.48;nan
70053;BME280;57398;52.032;4.376;2023-02-15T03:54:13;103008.03;;;-1.53;nan
70053;BME280;57398;52.032;4.376;2023-02-15T03:57:26;103003.28;;;-1.59;nan
70053;BME280;57398;52.032;4.376;2023-02-15T04:00:36;102995.88;;;-1.63;nan
70053;BME280;57398;52.032;4.376;2023-02-15T04:03:45;103001.97;;;-1.66;nan
70053;BME280;57398;52.032;4.376;2023-02-15T04:06:37;102995.16;;;-1.65;nan
70053;BME280;57398;52.032;4.376;2023-02-15T04:09:25;102987.59;;;-1.67;nan
70053;BME280;57398;52.032;4.376;2023-02-15T04:12:32;102984.31;;;-1.69;nan
70053;BME280;57398;52.032;4.376;2023-02-15T04:15:20;102984.72;;;-1.77;nan
70053;BME280;57398;52.032;4.376;2023-02-15T04:18:25;102975.44;;;-1.78;nan
70053;BME280;57398;52.032;4.376;2023-02-15T04:21:31;102976.44;;;-1.80;nan
70053;BME280;57398;52.032;4.376;2023-02-15T04:24:37;102979.06;;;-1.82;nan
70053;BME280;57398;52.032;4.376;2023-02-15T04:27:46;102984.16;;;-1.82;nan
70053;BME280;57398;52.032;4.376;2023-02-15T04:30:35;102975.13;;;-1.87;nan
70053;BME280;57398;52.032;4.376;2023-02-15T04:33:23;102986.22;;;-1.88;nan
70053;BME280;57398;52.032;4.376;2023-02-15T04:36:11;102981.13;;;-1.88;nan
70053;BME280;57398;52.032;4.376;2023-02-15T04:38:59;102976.28;;;-1.93;nan
70053;BME280;57398;52.032;4.376;2023-02-15T04:41:47;102976.44;;;-1.96;nan
70053;BME280;57398;52.032;4.376;2023-02-15T04:44:37;102974.16;;;-2.01;nan
70053;BME280;57398;52.032;4.376;2023-02-15T04:47:25;102966.50;;;-2.01;nan
70053;BME280;57398;52.032;4.376;2023-02-15T04:50:13;102965.94;;;-2.06;nan
70053;BME280;57398;52.032;4.376;2023-02-15T04:53:02;102968.56;;;-2.07;nan
70053;BME280;57398;52.032;4.376;2023-02-15T04:55:50;102962.00;;;-2.12;nan
70053;BME280;57398;52.032;4.376;2023-02-15T04:58:38;102967.81;;;-2.09;nan
70053;BME280;57398;52.032;4.376;2023-02-15T05:01:29;102974.66;;;-2.10;nan
70053;BME280;57398;52.032;4.376;2023-02-15T05:04:17;102964.28;;;-2.07;nan
70053;BME280;57398;52.032;4.376;2023-02-15T05:07:05;102965.28;;;-2.09;nan
70053;BME280;57398;52.032;4.376;2023-02-15T05:09:54;102969.69;;;-2.13;nan
70053;BME280;57398;52.032;4.376;2023-02-15T05:12:42;102964.59;;;-2.13;nan
70053;BME280;57398;52.032;4.376;2023-02-15T05:15:30;102958.69;;;-2.14;nan
70053;BME280;57398;52.032;4.376;2023-02-15T05:18:21;102964.72;;;-2.15;nan
70053;BME280;57398;52.032;4.376;2023-02-15T05:21:09;102962.72;;;-2.09;nan
70053;BME280;57398;52.032;4.376;2023-02-15T05:23:57;102951.81;;;-2.12;nan
70053;BME280;57398;52.032;4.376;2023-02-15T05:26:46;102952.78;;;-2.14;nan
70053;BME280;57398;52.032;4.376;2023-02-15T05:29:56;102955.41;;;-2.16;nan
70053;BME280;57398;52.032;4.376;2023-02-15T05:32:45;102941.88;;;-2.16;nan
70053;BME280;57398;52.032;4.376;2023-02-15T05:35:35;102941.03;;;-2.01;nan
70053;BME280;57398;52.032;4.376;2023-02-15T05:38:23;102939.63;;;-2.06;nan
70053;BME280;57398;52.032;4.376;2023-02-15T05:41:11;102936.47;;;-2.10;nan
70053;BME280;57398;52.032;4.376;2023-02-15T05:43:59;102935.53;;;-2.09;nan
70053;BME280;57398;52.032;4.376;2023-02-15T05:46:47;102920.25;;;-2.09;nan
70053;BME280;57398;52.032;4.376;2023-02-15T05:49:35;102923.72;;;-2.10;nan
70053;BME280;57398;52.032;4.376;2023-02-15T05:52:25;102924.88;;;-2.16;nan
70053;BME280;57398;52.032;4.376;2023-02-15T05:55:13;102928.25;;;-2.15;nan
70053;BME280;57398;52.032;4.376;2023-02-15T05:58:01;102926.53;;;-2.15;nan
70053;BME280;57398;52.032;4.376;2023-02-15T06:00:49;102919.88;;;-2.17;nan
70053;BME280;57398;52.032;4.376;2023-02-15T06:03:37;102916.09;;;-2.26;nan
70053;BME280;57398;52.032;4.376;2023-02-15T06:06:26;102915.09;;;-2.23;nan
70053;BME280;57398;52.032;4.376;2023-02-15T06:09:15;102910.94;;;-2.24;nan
70053;BME280;57398;52.032;4.376;2023-02-15T06:12:05;102925.47;;;-2.26;nan
70053;BME280;57398;52.032;4.376;2023-02-15T06:14:53;102932.00;;;-2.22;nan
70053;BME280;57398;52.032;4.376;2023-02-15T06:17:41;102935.97;;;-2.17;nan
70053;BME280;57398;52.032;4.376;2023-02-15T06:20:29;102923.31;;;-2.18;nan
70053;BME280;57398;52.032;4.376;2023-02-15T06:23:18;102930.94;;;-2.18;nan
70053;BME280;57398;52.032;4.376;2023-02-15T06:26:07;102932.09;;;-2.24;nan
70053;BME280;57398;52.032;4.376;2023-02-15T06:28:55;102938.94;;;-2.24;nan
70053;BME280;57398;52.032;4.376;2023-02-15T06:31:43;102934.81;;;-2.27;nan
70053;BME280;57398;52.032;4.376;2023-02-15T06:34:32;102934.16;;;-2.30;nan
70053;BME280;57398;52.032;4.376;2023-02-15T06:37:20;102939.31;;;-2.00;nan
70053;BME280;57398;52.032;4.376;2023-02-15T06:40:09;102927.56;;;-1.87;nan
70053;BME280;57398;52.032;4.376;2023-02-15T06:42:58;102930.41;;;-1.77;nan
70053;BME280;57398;52.032;4.376;2023-02-15T06:45:47;102934.19;;;-1.84;nan
70053;BME280;57398;52.032;4.376;2023-02-15T06:48:35;102931.25;;;-1.93;nan
70053;BME280;57398;52.032;4.376;2023-02-15T06:51:23;102930.13;;;-2.03;nan
70053;BME280;57398;52.032;4.376;2023-02-15T06:54:11;102924.72;;;-2.13;nan
70053;BME280;57398;52.032;4.376;2023-02-15T06:56:59;102922.50;;;-2.19;nan
70053;BME280;57398;52.032;4.376;2023-02-15T06:59:48;102920.13;;;-2.22;nan
70053;BME280;57398;52.032;4.376;2023-02-15T07:02:36;102916.84;;;-2.24;nan
70053;BME280;57398;52.032;4.376;2023-02-15T07:05:25;102913.06;;;-2.17;nan
70053;BME280;57398;52.032;4.376;2023-02-15T07:08:17;102908.84;;;-2.18;nan
70053;BME280;57398;52.032;4.376;2023-02-15T07:11:07;102916.22;;;-2.13;nan
70053;BME280;57398;52.032;4.376;2023-02-15T07:14:12;102913.53;;;-2.10;nan
70053;BME280;57398;52.032;4.376;2023-02-15T07:17:02;102915.09;;;-2.07;nan
70053;BME280;57398;52.032;4.376;2023-02-15T07:19:51;102907.19;;;-2.03;nan
70053;BME280;57398;52.032;4.376;2023-02-15T07:22:39;102901.19;;;-2.02;nan
70053;BME280;57398;52.032;4.376;2023-02-15T07:25:27;102911.56;;;-2.05;nan
70053;BME280;57398;52.032;4.376;2023-02-15T07:28:16;102910.50;;;-2.01;nan
70053;BME280;57398;52.032;4.376;2023-02-15T07:31:04;102900.94;;;-1.97;nan
70053;BME280;57398;52.032;4.376;2023-02-15T07:33:54;102902.66;;;-1.98;nan
70053;BME280;57398;52.032;4.376;2023-02-15T07:36:43;102898.31;;;-1.96;nan
70053;BME280;57398;52.032;4.376;2023-02-15T07:39:32;102896.50;;;-1.94;nan
70053;BME280;57398;52.032;4.376;2023-02-15T07:42:20;102902.81;;;-1.85;nan
70053;BME280;57398;52.032;4.376;2023-02-15T07:45:09;102900.00;;;-1.80;nan
70053;BME280;57398;52.032;4.376;2023-02-15T07:47:57;102902.78;;;-1.69;nan
70053;BME280;57398;52.032;4.376;2023-02-15T07:50:46;102902.72;;;-1.53;nan
70053;BME280;57398;52.032;4.376;2023-02-15T07:53:35;102894.91;;;-1.50;nan
70053;BME280;57398;52.032;4.376;2023-02-15T07:56:24;102893.44;;;-1.40;nan
70053;BME280;57398;52.032;4.376;2023-02-15T07:59:12;102895.84;;;-1.22;nan
70053;BME280;57398;52.032;4.376;2023-02-15T08:02:00;102896.69;;;-1.08;nan
70053;BME280;57398;52.032;4.376;2023-02-15T08:04:49;102898.50;;;-0.95;nan
70053;BME280;57398;52.032;4.376;2023-02-15T08:07:39;102899.31;;;-0.80;nan
70053;BME280;57398;52.032;4.376;2023-02-15T08:10:27;102896.47;;;-0.61;nan
70053;BME280;57398;52.032;4.376;2023-02-15T08:13:29;102898.47;;;-0.52;nan
70053;BME280;57398;52.032;4.376;2023-02-15T08:16:17;102902.72;;;-0.38;nan
70053;BME280;57398;52.032;4.376;2023-02-15T08:19:07;102892.81;;;-0.30;nan
70053;BME280;57398;52.032;4.376;2023-02-15T08:21:58;102889.25;;;-0.28;nan
70053;BME280;57398;52.032;4.376;2023-02-15T08:24:48;102890.25;;;-0.16;nan
70053;BME280;57398;52.032;4.376;2023-02-15T08:27:36;102887.72;;;-0.03;nan
70053;BME280;57398;52.032;4.376;2023-02-15T08:30:25;102892.16;;;0.08;nan
70053;BME280;57398;52.032;4.376;2023-02-15T08:33:14;102886.34;;;0.18;nan
70053;BME280;57398;52.032;4.376;2023-02-15T08:36:06;102895.16;;;0.40;nan
70053;BME280;57398;52.032;4.376;2023-02-15T08:38:56;102900.81;;;0.58;nan
70053;BME280;57398;52.032;4.376;2023-02-15T08:41:47;102897.84;;;0.77;nan
70053;BME280;57398;52.032;4.376;2023-02-15T08:44:36;102903.16;;;0.87;nan
70053;BME280;57398;52.032;4.376;2023-02-15T08:47:24;102898.75;;;1.01;nan
70053;BME280;57398;52.032;4.376;2023-02-15T08:50:12;102906.72;;;1.10;nan
70053;BME280;57398;52.032;4.376;2023-02-15T08:53:00;102905.19;;;1.20;nan
70053;BME280;57398;52.032;4.376;2023-02-15T08:55:55;102913.03;;;1.30;nan
70053;BME280;57398;52.032;4.376;2023-02-15T08:58:44;102901.25;;;1.40;nan
70053;BME280;57398;52.032;4.376;2023-02-15T09:01:34;102903.81;;;1.64;nan
70053;BME280;57398;52.032;4.376;2023-02-15T09:04:23;102912.88;;;1.81;nan
70053;BME280;57398;52.032;4.376;2023-02-15T09:07:11;102906.06;;;1.93;nan
70053;BME280;57398;52.032;4.376;2023-02-15T09:09:59;102895.16;;;2.02;nan
70053;BME280;57398;52.032;4.376;2023-02-15T09:12:47;102903.56;;;2.15;nan
70053;BME280;57398;52.032;4.376;2023-02-15T09:15:39;102901.41;;;2.33;nan
70053;BME280;57398;52.032;4.376;2023-02-15T09:18:27;102904.75;;;2.58;nan
70053;BME280;57398;52.032;4.376;2023-02-15T09:21:17;102901.75;;;2.86;nan
70053;BME280;57398;52.032;4.376;2023-02-15T09:24:07;102895.06;;;3.06;nan
70053;BME280;57398;52.032;4.376;2023-02-15T09:26:55;102887.25;;;3.19;nan
70053;BME280;57398;52.032;4.376;2023-02-15T09:29:43;102884.53;;;3.32;nan
70053;BME280;57398;52.032;4.376;2023-02-15T09:32:33;102879.16;;;3.46;nan
70053;BME280;57398;52.032;4.376;2023-02-15T09:35:21;102882.84;;;3.65;nan
70053;BME280;57398;52.032;4.376;2023-02-15T09:38:09;102888.03;;;3.86;nan
70053;BME280;57398;52.032;4.376;2023-02-15T09:41:10;102892.13;;;4.09;nan
70053;BME280;57398;52.032;4.376;2023-02-15T09:44:10;102884.16;;;4.33;nan
70053;BME280;57398;52.032;4.376;2023-02-15T09:47:10;102885.31;;;4.50;nan
70053;BME280;57398;52.032;4.376;2023-02-15T09:50:08;102889.31;;;4.64;nan
70053;BME280;57398;52.032;4.376;2023-02-15T09:53:11;102891.25;;;4.72;nan
70053;BME280;57398;52.032;4.376;2023-02-15T09:56:10;102885.59;;;4.78;nan
70053;BME280;57398;52.032;4.376;2023-02-15T09:59:08;102888.38;;;4.96;nan
70053;BME280;57398;52.032;4.376;2023-02-15T10:02:09;102874.84;;;5.03;nan
70053;BME280;57398;52.032;4.376;2023-02-15T10:05:17;102871.06;;;5.08;nan
70053;BME280;57398;52.032;4.376;2023-02-15T10:08:45;102869.97;;;5.10;nan
70053;BME280;57398;52.032;4.376;2023-02-15T10:11:52;102871.13;;;5.27;nan
70053;BME280;57398;52.032;4.376;2023-02-15T10:14:56;102869.63;;;5.44;nan
70053;BME280;57398;52.032;4.376;2023-02-15T10:18:00;102872.91;;;5.56;nan
70053;BME280;57398;52.032;4.376;2023-02-15T10:20:56;102870.47;;;5.74;nan
70053;BME280;57398;52.032;4.376;2023-02-15T10:24:01;102876.56;;;5.92;nan
70053;BME280;57398;52.032;4.376;2023-02-15T10:26:56;102865.06;;;6.06;nan
70053;BME280;57398;52.032;4.376;2023-02-15T10:29:54;102862.28;;;6.27;nan
70053;BME280;57398;52.032;4.376;2023-02-15T10:32:57;102853.69;;;6.46;nan
70053;BME280;57398;52.032;4.376;2023-02-15T10:35:55;102835.47;;;6.47;nan
70053;BME280;57398;52.032;4.376;2023-02-15T10:38:50;102827.91;;;6.64;nan
70053;BME280;57398;52.032;4.376;2023-02-15T10:41:46;102814.13;;;6.83;nan
70053;BME280;57398;52.032;4.376;2023-02-15T10:44:48;102806.56;;;7.17;nan
70053;BME280;57398;52.032;4.376;2023-02-15T10:47:58;102789.19;;;7.27;nan
70053;BME280;57398;52.032;4.376;2023-02-15T10:50:55;102765.56;;;7.22;nan
70053;BME280;57398;52.032;4.376;2023-02-15T10:54:00;102748.84;;;7.52;nan
70053;BME280;57398;52.032;4.376;2023-02-15T10:57:01;102739.16;;;7.54;nan
70053;BME280;57398;52.032;4.376;2023-02-15T11:00:03;102733.44;;;7.69;nan
70053;BME280;57398;52.032;4.376;2023-02-15T11:03:05;102717.09;;;7.68;nan
70053;BME280;57398;52.032;4.376;2023-02-15T11:06:04;102706.75;;;7.68;nan
70053;BME280;57398;52.032;4.376;2023-02-15T11:08:55;102721.22;;;7.79;nan
70053;BME280;57398;52.032;4.376;2023-02-15T11:11:48;102715.94;;;7.89;nan
70053;BME280;57398;52.032;4.376;2023-02-15T11:14:44;102704.13;;;7.94;nan
70053;BME280;57398;52.032;4.376;2023-02-15T11:17:37;102707.44;;;8.05;nan
70053;BME280;57398;52.032;4.376;2023-02-15T11:20:29;102698.03;;;8.04;nan
70053;BME280;57398;52.032;4.376;2023-02-15T11:23:21;102694.78;;;8.02;nan
70053;BME280;57398;52.032;4.376;2023-02-15T11:26:28;102691.13;;;8.12;nan
70053;BME280;57398;52.032;4.376;2023-02-15T11:29:35;102700.38;;;8.23;nan
70053;BME280;57398;52.032;4.376;2023-02-15T11:32:27;102688.56;;;8.29;nan
70053;BME280;57398;52.032;4.376;2023-02-15T11:35:20;102687.56;;;8.48;nan
70053;BME280;57398;52.032;4.376;2023-02-15T11:38:15;102674.44;;;8.57;nan
70053;BME280;57398;52.032;4.376;2023-02-15T11:41:09;102668.63;;;8.64;nan
70053;BME280;57398;52.032;4.376;2023-02-15T11:44:00;102654.69;;;8.56;nan
70053;BME280;57398;52.032;4.376;2023-02-15T11:46:53;102660.72;;;8.73;nan
70053;BME280;57398;52.032;4.376;2023-02-15T11:49:41;102654.25;;;8.94;nan
70053;BME280;57398;52.032;4.376;2023-02-15T11:52:29;102664.44;;;9.12;nan
70053;BME280;57398;52.032;4.376;2023-02-15T11:55:21;102666.22;;;9.03;nan
70053;BME280;57398;52.032;4.376;2023-02-15T11:58:21;102660.38;;;9.01;nan
70053;BME280;57398;52.032;4.376;2023-02-15T12:01:15;102670.41;;;9.20;nan
70053;BME280;57398;52.032;4.376;2023-02-15T12:04:07;102674.78;;;9.28;nan
70053;BME280;57398;52.032;4.376;2023-02-15T12:07:00;102666.81;;;9.30;nan
70053;BME280;57398;52.032;4.376;2023-02-15T12:09:53;102655.69;;;9.13;nan
70053;BME280;57398;52.032;4.376;2023-02-15T12:12:44;102651.75;;;9.33;nan
70053;BME280;57398;52.032;4.376;2023-02-15T12:15:34;102653.56;;;9.25;nan
70053;BME280;57398;52.032;4.376;2023-02-15T12:18:45;102660.84;;;9.29;nan
70053;BME280;57398;52.032;4.376;2023-02-15T12:21:39;102659.88;;;9.30;nan
70053;BME280;57398;52.032;4.376;2023-02-15T12:24:31;102659.34;;;9.43;nan
70053;BME280;57398;52.032;4.376;2023-02-15T12:27:21;102650.97;;;9.25;nan
70053;BME280;57398;52.032;4.376;2023-02-15T12:30:19;102644.63;;;9.27;nan
70053;BME280;57398;52.032;4.376;2023-02-15T12:33:25;102642.03;;;9.35;nan
70053;BME280;57398;52.032;4.376;2023-02-15T12:36:18;102639.28;;;9.37;nan
70053;BME280;57398;52.032;4.376;2023-02-15T12:39:18;102639.09;;;9.38;nan
70053;BME280;57398;52.032;4.376;2023-02-15T12:42:15;102640.38;;;9.51;nan
70053;BME280;57398;52.032;4.376;2023-02-15T12:45:21;102643.44;;;9.62;nan
70053;BME280;57398;52.032;4.376;2023-02-15T12:48:16;102641.97;;;9.60;nan
70053;BME280;57398;52.032;4.376;2023-02-15T12:51:08;102636.59;;;9.61;nan
70053;BME280;57398;52.032;4.376;2023-02-15T12:54:15;102632.06;;;9.63;nan
70053;BME280;57398;52.032;4.376;2023-02-15T12:57:15;102628.34;;;9.58;nan
70053;BME280;57398;52.032;4.376;2023-02-15T13:00:25;102622.81;;;9.61;nan
70053;BME280;57398;52.032;4.376;2023-02-15T13:03:18;102626.91;;;9.55;nan
70053;BME280;57398;52.032;4.376;2023-02-15T13:06:08;102613.38;;;9.68;nan
70053;BME280;57398;52.032;4.376;2023-02-15T13:08:58;102611.28;;;9.72;nan
70053;BME280;57398;52.032;4.376;2023-02-15T13:11:53;102617.56;;;9.77;nan
70053;BME280;57398;52.032;4.376;2023-02-15T13:14:44;102616.91;;;9.83;nan
70053;BME280;57398;52.032;4.376;2023-02-15T13:17:33;102618.50;;;9.84;nan
70053;BME280;57398;52.032;4.376;2023-02-15T13:20:23;102617.25;;;9.80;nan
70053;BME280;57398;52.032;4.376;2023-02-15T13:23:24;102617.25;;;9.80;nan
70053;BME280;57398;52.032;4.376;2023-02-15T13:26:16;102610.41;;;9.88;nan
70053;BME280;57398;52.032;4.376;2023-02-15T13:29:11;102600.66;;;9.90;nan
70053;BME280;57398;52.032;4.376;2023-02-15T13:32:07;102599.81;;;9.89;nan
70053;BME280;57398;52.032;4.376;2023-02-15T13:34:57;102604.00;;;9.98;nan
70053;BME280;57398;52.032;4.376;2023-02-15T13:38:02;102595.41;;;9.98;nan
70053;BME280;57398;52.032;4.376;2023-02-15T13:40:55;102588.94;;;9.94;nan
70053;BME280;57398;52.032;4.376;2023-02-15T13:43:52;102584.38;;;9.96;nan
70053;BME280;57398;52.032;4.376;2023-02-15T13:46:54;102574.88;;;9.88;nan
70053;BME280;57398;52.032;4.376;2023-02-15T13:49:54;102570.75;;;9.94;nan
70053;BME280;57398;52.032;4.376;2023-02-15T13:52:53;102565.19;;;10.05;nan
70053;BME280;57398;52.032;4.376;2023-02-15T13:55:50;102564.22;;;10.06;nan
70053;BME280;57398;52.032;4.376;2023-02-15T13:58:59;102561.66;;;9.98;nan
70053;BME280;57398;52.032;4.376;2023-02-15T14:01:56;102569.09;;;10.01;nan
70053;BME280;57398;52.032;4.376;2023-02-15T14:05:15;102569.72;;;10.03;nan
70053;BME280;57398;52.032;4.376;2023-02-15T14:08:19;102568.00;;;9.95;nan
70053;BME280;57398;52.032;4.376;2023-02-15T14:11:18;102569.31;;;9.91;nan
70053;BME280;57398;52.032;4.376;2023-02-15T14:14:44;102564.31;;;9.90;nan
70053;BME280;57398;52.032;4.376;2023-02-15T14:17:45;102571.63;;;9.86;nan
70053;BME280;57398;52.032;4.376;2023-02-15T14:21:01;102576.41;;;9.74;nan
70053;BME280;57398;52.032;4.376;2023-02-15T14:24:01;102572.50;;;9.78;nan
70053;BME280;57398;52.032;4.376;2023-02-15T14:27:01;102568.91;;;9.79;nan
70053;BME280;57398;52.032;4.376;2023-02-15T14:29:56;102562.94;;;9.71;nan
70053;BME280;57398;52.032;4.376;2023-02-15T14:32:47;102593.13;;;9.72;nan
70053;BME280;57398;52.032;4.376;2023-02-15T14:35:39;102576.91;;;9.70;nan
70053;BME280;57398;52.032;4.376;2023-02-15T14:38:43;102580.66;;;9.67;nan
70053;BME280;57398;52.032;4.376;2023-02-15T14:41:41;102579.19;;;9.64;nan
70053;BME280;57398;52.032;4.376;2023-02-15T14:44:35;102584.53;;;9.71;nan
70053;BME280;57398;52.032;4.376;2023-02-15T14:47:27;102588.72;;;9.72;nan
70053;BME280;57398;52.032;4.376;2023-02-15T14:50:42;102576.56;;;9.73;nan
70053;BME280;57398;52.032;4.376;2023-02-15T14:53:35;102577.69;;;9.70;nan
70053;BME280;57398;52.032;4.376;2023-02-15T14:56:25;102589.06;;;9.69;nan
70053;BME280;57398;52.032;4.376;2023-02-15T14:59:17;102580.47;;;9.69;nan
70053;BME280;57398;52.032;4.376;2023-02-15T15:02:12;102572.72;;;9.60;nan
70053;BME280;57398;52.032;4.376;2023-02-15T15:05:07;102569.66;;;9.57;nan
70053;BME280;57398;52.032;4.376;2023-02-15T15:07:57;102564.00;;;9.53;nan
70053;BME280;57398;52.032;4.376;2023-02-15T15:10:46;102569.69;;;9.49;nan
70053;BME280;57398;52.032;4.376;2023-02-15T15:13:37;102571.94;;;9.52;nan
70053;BME280;57398;52.032;4.376;2023-02-15T15:16:47;102563.88;;;9.38;nan
70053;BME280;57398;52.032;4.376;2023-02-15T15:20:11;102572.66;;;9.37;nan
70053;BME280;57398;52.032;4.376;2023-02-15T15:23:39;102571.84;;;9.37;nan
70053;BME280;57398;52.032;4.376;2023-02-15T15:26:30;102571.38;;;9.33;nan
70053;BME280;57398;52.032;4.376;2023-02-15T15:29:38;102570.38;;;9.34;nan
70053;BME280;57398;52.032;4.376;2023-02-15T15:32:30;102573.97;;;9.33;nan
70053;BME280;57398;52.032;4.376;2023-02-15T15:35:26;102571.06;;;9.28;nan
70053;BME280;57398;52.032;4.376;2023-02-15T15:38:32;102566.03;;;9.18;nan
70053;BME280;57398;52.032;4.376;2023-02-15T15:41:39;102565.25;;;9.18;nan
70053;BME280;57398;52.032;4.376;2023-02-15T15:45:22;102559.91;;;9.11;nan